createdAt,value
2023-04-05T00:01:29.159Z,1.55
2023-04-05T00:06:32.380Z,1.49
2023-04-05T00:11:36.371Z,1.45
2023-04-05T00:16:39.827Z,1.36
2023-04-05T00:21:44.412Z,1.19
2023-04-05T00:26:48.793Z,1.07
2023-04-05T00:31:52.424Z,0.98
2023-04-05T00:36:55.606Z,0.96
2023-04-05T00:41:59.098Z,0.91
2023-04-05T00:47:05.439Z,0.88
2023-04-05T00:52:09.134Z,1.02
2023-04-05T00:57:12.962Z,1.12
2023-04-05T01:02:25.466Z,1.06
2023-04-05T01:07:50.331Z,1.04
2023-04-05T01:12:54.132Z,1.05
2023-04-05T01:17:57.867Z,0.92
2023-04-05T01:23:38.177Z,0.93
2023-04-05T01:29:10.039Z,0.95
2023-04-05T01:34:38.415Z,1.15
2023-04-05T01:39:42.523Z,1.38
2023-04-05T01:44:45.977Z,1.56
2023-04-05T01:49:49.432Z,1.71
2023-04-05T01:54:53.751Z,1.82
2023-04-05T01:59:57.277Z,2.09
2023-04-05T02:05:01.025Z,2.20
2023-04-05T02:10:05.154Z,2.19
2023-04-05T02:15:09.727Z,2.17
2023-04-05T02:20:14.602Z,2.14
2023-04-05T02:25:18.193Z,2.19
2023-04-05T02:30:21.420Z,2.30
2023-04-05T02:35:24.742Z,2.21
2023-04-05T02:40:28.914Z,2.13
2023-04-05T02:45:33.017Z,2.11
2023-04-05T02:50:36.796Z,2.27
2023-04-05T02:55:42.280Z,2.43
2023-04-05T03:00:52.207Z,2.44
2023-04-05T03:06:22.788Z,2.51
2023-04-05T03:11:28.276Z,2.87
2023-04-05T03:16:34.854Z,3.34
2023-04-05T03:21:45.574Z,3.66
2023-04-05T03:27:06.364Z,3.80
2023-04-05T03:32:31.197Z,3.88
2023-04-05T03:37:43.923Z,4.00
2023-04-05T03:42:47.470Z,4.21
2023-04-05T03:47:51.283Z,4.25
2023-04-05T03:52:54.791Z,4.36
2023-04-05T03:57:59.258Z,4.54
2023-04-05T04:03:10.942Z,4.52
2023-04-05T04:08:18.646Z,4.54
2023-04-05T04:13:22.065Z,4.67
2023-04-05T04:18:37.991Z,4.85
2023-04-05T04:24:01.317Z,5.04
2023-04-05T04:29:31.556Z,5.06
2023-04-05T04:34:56.361Z,5.19
2023-04-05T04:40:39.062Z,5.29
2023-04-05T04:46:00.659Z,5.24
2023-04-05T04:51:28.634Z,5.26
2023-04-05T04:56:31.711Z,5.28
2023-04-05T05:01:38.404Z,5.38
2023-04-05T05:06:41.821Z,5.58
2023-04-05T05:11:44.915Z,5.78
2023-04-05T05:16:50.238Z,5.91
2023-04-05T05:21:55.287Z,5.98
2023-04-05T05:26:58.747Z,6.09
2023-04-05T05:32:01.948Z,6.18
2023-04-05T05:37:05.041Z,6.30
2023-04-05T05:42:09.031Z,6.41
2023-04-05T05:47:12.973Z,6.62
2023-04-05T05:52:16.555Z,6.80
2023-04-05T05:57:20.929Z,6.82
2023-04-05T06:02:24.430Z,6.98
2023-04-05T06:07:28.018Z,7.05
2023-04-05T06:12:31.974Z,7.05
2023-04-05T06:17:42.365Z,7.49
2023-04-05T06:22:46.121Z,8.81
2023-04-05T06:27:49.623Z,10.34
2023-04-05T06:32:54.929Z,9.63
2023-04-05T06:37:58.968Z,9.63
2023-04-05T06:43:02.509Z,9.62
2023-04-05T06:48:09.369Z,9.17
2023-04-05T06:53:15.507Z,9.92
2023-04-05T06:58:18.717Z,10.78
2023-04-05T07:03:23.095Z,10.39
2023-04-05T07:08:27.639Z,9.99
2023-04-05T07:13:31.560Z,11.68
2023-04-05T07:18:35.676Z,12.21
2023-04-05T07:23:39.708Z,11.36
2023-04-05T07:28:42.906Z,13.46
2023-04-05T07:33:46.915Z,13.63
2023-04-05T07:38:50.578Z,13.19
2023-04-05T07:43:54.793Z,14.09
2023-04-05T07:48:58.659Z,13.82
2023-04-05T07:54:03.352Z,13.00
2023-04-05T07:59:07.215Z,13.67
2023-04-05T08:04:10.634Z,12.68
2023-04-05T08:09:14.024Z,13.07
2023-04-05T08:14:17.141Z,12.01
2023-04-05T08:19:20.792Z,12.84
2023-04-05T08:24:24.565Z,13.79
2023-04-05T08:29:27.818Z,14.69
2023-04-05T08:34:31.237Z,15.04
2023-04-05T08:39:38.117Z,15.46
2023-04-05T08:44:42.847Z,14.55
2023-04-05T08:49:47.289Z,14.21
2023-04-05T08:54:51.066Z,14.79
2023-04-05T08:59:56.737Z,14.20
2023-04-05T09:05:01.255Z,14.47
2023-04-05T09:10:07.455Z,14.10
2023-04-05T09:15:12.215Z,14.87
2023-04-05T09:20:15.868Z,13.68
2023-04-05T09:25:42.743Z,14.14
2023-04-05T09:30:48.688Z,13.65
2023-04-05T09:35:52.719Z,11.87
2023-04-05T09:40:57.167Z,9.87
2023-04-05T09:46:32.875Z,9.61
2023-04-05T09:51:39.373Z,9.73
2023-04-05T09:56:55.409Z,9.64
2023-04-05T10:01:58.647Z,9.32
2023-04-05T10:07:02.826Z,9.32
2023-04-05T10:12:08.924Z,9.14
2023-04-05T10:17:21.689Z,9.86
2023-04-05T10:22:49.172Z,10.37
2023-04-05T10:27:57.985Z,11.31
2023-04-05T10:33:12.782Z,11.32
2023-04-05T10:38:30.274Z,11.52
2023-04-05T10:43:37.748Z,12.16
2023-04-05T10:49:02.321Z,12.70
2023-04-05T10:54:08.339Z,13.01
2023-04-05T10:59:13.284Z,13.45
2023-04-05T11:04:18.262Z,14.14
2023-04-05T11:09:23.800Z,13.76
2023-04-05T11:14:39.534Z,13.50
2023-04-05T11:19:43.578Z,13.53
2023-04-05T11:24:58.336Z,13.36
2023-04-05T11:30:03.296Z,13.41
2023-04-05T11:35:08.554Z,13.87
2023-04-05T11:40:31.271Z,14.28
2023-04-05T11:45:36.560Z,14.65
2023-04-05T11:50:47.755Z,14.88
2023-04-05T11:55:53.279Z,15.15
2023-04-05T12:01:05.246Z,16.33
2023-04-05T12:06:09.156Z,15.02
2023-04-05T12:11:13.601Z,14.42
2023-04-05T12:16:17.491Z,14.08
2023-04-05T12:21:21.213Z,11.56
2023-04-05T12:26:25.992Z,10.07
2023-04-05T12:31:39.808Z,9.89
2023-04-05T12:36:46.873Z,10.74
2023-04-05T12:42:17.403Z,12.03
2023-04-05T12:47:22.156Z,12.39
2023-04-05T12:52:28.353Z,13.05
2023-04-05T12:57:32.674Z,13.15
2023-04-05T13:02:37.145Z,13.61
2023-04-05T13:07:40.343Z,14.10
2023-04-05T13:12:44.481Z,14.24
2023-04-05T13:17:50.449Z,14.30
2023-04-05T13:22:56.019Z,14.98
2023-04-05T13:28:00.150Z,14.83
2023-04-05T13:33:05.005Z,15.22
2023-04-05T13:38:08.620Z,15.01
2023-04-05T13:43:12.611Z,15.21
2023-04-05T13:48:16.800Z,15.21
2023-04-05T13:53:19.997Z,15.35
2023-04-05T13:58:23.908Z,15.47
2023-04-05T14:03:27.504Z,14.95
2023-04-05T14:08:31.105Z,15.00
2023-04-05T14:13:34.223Z,15.69
2023-04-05T14:18:37.720Z,14.13
2023-04-05T14:23:41.787Z,14.65
2023-04-05T14:28:46.323Z,13.03
2023-04-05T14:33:50.261Z,12.16
2023-04-05T14:38:53.901Z,11.50
2023-04-05T14:43:58.151Z,12.55
2023-04-05T14:49:01.622Z,13.71
2023-04-05T14:54:05.066Z,13.89
2023-04-05T14:59:08.164Z,14.02
2023-04-05T15:04:12.457Z,12.85
2023-04-05T15:09:16.044Z,13.73
2023-04-05T15:14:30.748Z,14.32
2023-04-05T15:19:36.427Z,14.45
2023-04-05T15:24:43.422Z,14.69
2023-04-05T15:29:47.452Z,14.70
2023-04-05T15:34:51.695Z,14.26
2023-04-05T15:39:55.800Z,13.74
2023-04-05T15:44:59.428Z,13.36
2023-04-05T15:50:03.510Z,12.49
2023-04-05T15:55:07.245Z,12.64
2023-04-05T16:00:11.802Z,12.60
2023-04-05T16:05:15.928Z,12.56
2023-04-05T16:10:19.084Z,12.52
2023-04-05T16:15:22.465Z,12.37
2023-04-05T16:20:26.479Z,12.28
2023-04-05T16:25:29.899Z,11.72
2023-04-05T16:30:33.824Z,11.36
2023-04-05T16:35:37.729Z,11.12
2023-04-05T16:40:41.917Z,10.66
2023-04-05T16:45:45.413Z,10.41
2023-04-05T16:50:49.076Z,10.23
2023-04-05T16:55:52.638Z,9.92
2023-04-05T17:00:59.073Z,9.62
2023-04-05T17:06:03.041Z,9.45
2023-04-05T17:11:07.236Z,9.25
2023-04-05T17:16:10.767Z,9.08
2023-04-05T17:21:14.805Z,8.51
2023-04-05T17:26:18.814Z,8.62
2023-04-05T17:31:22.238Z,8.52
2023-04-05T17:36:27.707Z,8.32
2023-04-05T17:41:31.821Z,8.04
2023-04-05T17:46:42.818Z,7.92
2023-04-05T17:51:48.841Z,7.45
2023-04-05T17:56:52.543Z,7.29
2023-04-05T18:01:57.686Z,7.32
2023-04-05T18:07:01.580Z,7.30
2023-04-05T18:12:05.931Z,7.24
2023-04-05T18:17:09.652Z,7.21
2023-04-05T18:22:13.387Z,7.05
2023-04-05T18:27:17.153Z,7.03
2023-04-05T18:32:20.915Z,7.04
2023-04-05T18:37:24.489Z,6.98
2023-04-05T18:42:28.240Z,7.00
2023-04-05T18:47:32.373Z,6.92
2023-04-05T18:52:38.222Z,6.73
2023-04-05T18:57:42.244Z,6.79
2023-04-05T19:02:45.887Z,6.63
2023-04-05T19:07:48.991Z,6.40
2023-04-05T19:12:52.962Z,6.23
2023-04-05T19:17:56.178Z,6.30
2023-04-05T19:23:00.012Z,6.44
2023-04-05T19:28:03.692Z,6.41
2023-04-05T19:33:07.829Z,6.42
2023-04-05T19:38:14.324Z,6.37
2023-04-05T19:43:17.940Z,6.12
2023-04-05T19:48:37.579Z,6.22
2023-04-05T19:53:49.589Z,6.00
2023-04-05T19:59:01.941Z,5.93
2023-04-05T20:04:19.487Z,6.06
2023-04-05T20:09:24.182Z,6.05
2023-04-05T20:14:30.872Z,5.95
2023-04-05T20:19:34.323Z,5.48
2023-04-05T20:24:40.203Z,5.43
2023-04-05T20:29:43.558Z,5.42
2023-04-05T20:34:47.378Z,5.41
2023-04-05T20:39:51.225Z,5.48
2023-04-05T20:44:55.231Z,5.30
2023-04-05T20:49:59.864Z,5.66
2023-04-05T20:55:03.786Z,5.79
2023-04-05T21:00:08.281Z,5.89
2023-04-05T21:05:11.557Z,5.86
2023-04-05T21:10:15.161Z,5.92
2023-04-05T21:15:18.616Z,5.82
2023-04-05T21:20:22.264Z,5.89
2023-04-05T21:25:26.229Z,5.70
2023-04-05T21:30:30.073Z,5.64
2023-04-05T21:35:34.208Z,5.59
2023-04-05T21:40:37.803Z,5.48
2023-04-05T21:45:41.995Z,5.47
2023-04-05T21:50:45.161Z,5.47
2023-04-05T21:55:49.044Z,5.14
2023-04-05T22:00:52.185Z,5.00
2023-04-05T22:05:55.809Z,4.87
2023-04-05T22:10:58.937Z,4.64
2023-04-05T22:16:03.097Z,4.24
2023-04-05T22:21:06.554Z,3.79
2023-04-05T22:26:10.143Z,3.37
2023-04-05T22:31:14.968Z,3.08
2023-04-05T22:36:18.950Z,3.15
2023-04-05T22:41:22.450Z,3.40
2023-04-05T22:46:25.851Z,3.34
2023-04-05T22:51:29.531Z,3.18
2023-04-05T22:56:33.709Z,3.01
2023-04-05T23:01:37.460Z,2.96
2023-04-05T23:06:41.734Z,2.68
2023-04-05T23:11:45.757Z,2.46
2023-04-05T23:16:49.258Z,2.40
2023-04-05T23:21:52.846Z,2.15
2023-04-05T23:26:56.390Z,2.06
2023-04-05T23:31:59.874Z,2.09
2023-04-05T23:37:03.563Z,2.02
2023-04-05T23:42:07.322Z,1.93
2023-04-05T23:47:10.885Z,1.98
2023-04-05T23:52:14.776Z,2.27
2023-04-05T23:57:18.833Z,2.11
